sensor_id;sensor_type;location;lat;lon;timestamp;P1;durP1;ratioP1;P2;durP2;ratioP2
12880;SDS011;6508;53.786;9.996;2023-10-09T00:00:13;3.03;;;2.38;;
12880;SDS011;6508;53.786;9.996;2023-10-09T00:02:59;2.72;;;2.50;;
12880;SDS011;6508;53.786;9.996;2023-10-09T00:05:29;2.35;;;2.20;;
12880;SDS011;6508;53.786;9.996;2023-10-09T00:08:06;3.35;;;2.30;;
12880;SDS011;6508;53.786;9.996;2023-10-09T00:10:37;2.78;;;2.58;;
12880;SDS011;6508;53.786;9.996;2023-10-09T00:13:15;2.55;;;2.35;;
12880;SDS011;6508;53.786;9.996;2023-10-09T00:15:43;3.20;;;2.83;;
12880;SDS011;6508;53.786;9.996;2023-10-09T00:18:18;2.28;;;2.08;;
12880;SDS011;6508;53.786;9.996;2023-10-09T00:20:51;2.75;;;2.55;;
12880;SDS011;6508;53.786;9.996;2023-10-09T00:23:21;5.47;;;2.67;;
12880;SDS011;6508;53.786;9.996;2023-10-09T00:25:52;2.35;;;2.15;;
12880;SDS011;6508;53.786;9.996;2023-10-09T00:28:37;3.22;;;2.38;;
12880;SDS011;6508;53.786;9.996;2023-10-09T00:31:08;2.65;;;2.45;;
12880;SDS011;6508;53.786;9.996;2023-10-09T00:33:41;2.35;;;2.17;;
12880;SDS011;6508;53.786;9.996;2023-10-09T00:36:11;2.60;;;2.35;;
12880;SDS011;6508;53.786;9.996;2023-10-09T00:38:45;2.17;;;1.98;;
12880;SDS011;6508;53.786;9.996;2023-10-09T00:41:15;2.30;;;2.10;;
12880;SDS011;6508;53.786;9.996;2023-10-09T00:43:48;2.33;;;2.13;;
12880;SDS011;6508;53.786;9.996;2023-10-09T00:46:17;2.10;;;2.00;;
12880;SDS011;6508;53.786;9.996;2023-10-09T00:48:52;1.80;;;1.70;;
12880;SDS011;6508;53.786;9.996;2023-10-09T00:51:25;2.63;;;2.40;;
12880;SDS011;6508;53.786;9.996;2023-10-09T00:53:59;1.92;;;1.80;;
12880;SDS011;6508;53.786;9.996;2023-10-09T00:56:33;2.35;;;2.17;;
12880;SDS011;6508;53.786;9.996;2023-10-09T00:59:06;2.58;;;2.17;;
12880;SDS011;6508;53.786;9.996;2023-10-09T01:01:40;2.78;;;2.13;;
12880;SDS011;6508;53.786;9.996;2023-10-09T01:04:15;3.60;;;2.33;;
12880;SDS011;6508;53.786;9.996;2023-10-09T01:06:47;4.00;;;2.30;;
12880;SDS011;6508;53.786;9.996;2023-10-09T01:09:30;2.17;;;1.95;;
12880;SDS011;6508;53.786;9.996;2023-10-09T01:12:04;3.03;;;2.33;;
12880;SDS011;6508;53.786;9.996;2023-10-09T01:14:32;3.83;;;2.47;;
12880;SDS011;6508;53.786;9.996;2023-10-09T01:17:03;2.70;;;2.30;;
12880;SDS011;6508;53.786;9.996;2023-10-09T01:19:35;2.63;;;2.20;;
12880;SDS011;6508;53.786;9.996;2023-10-09T01:22:04;3.25;;;2.03;;
12880;SDS011;6508;53.786;9.996;2023-10-09T01:24:41;3.78;;;1.98;;
12880;SDS011;6508;53.786;9.996;2023-10-09T01:27:10;2.08;;;1.90;;
12880;SDS011;6508;53.786;9.996;2023-10-09T01:29:43;2.35;;;1.95;;
12880;SDS011;6508;53.786;9.996;2023-10-09T01:32:13;2.58;;;2.00;;
12880;SDS011;6508;53.786;9.996;2023-10-09T01:34:46;3.08;;;2.20;;
12880;SDS011;6508;53.786;9.996;2023-10-09T01:37:16;3.15;;;2.47;;
12880;SDS011;6508;53.786;9.996;2023-10-09T01:39:48;2.80;;;2.30;;
12880;SDS011;6508;53.786;9.996;2023-10-09T01:42:17;2.40;;;2.20;;
12880;SDS011;6508;53.786;9.996;2023-10-09T01:44:54;3.30;;;1.90;;
12880;SDS011;6508;53.786;9.996;2023-10-09T01:47:24;2.90;;;2.70;;
12880;SDS011;6508;53.786;9.996;2023-10-09T01:49:59;2.55;;;2.35;;
12880;SDS011;6508;53.786;9.996;2023-10-09T01:52:31;3.72;;;2.35;;
12880;SDS011;6508;53.786;9.996;2023-10-09T01:55:02;2.30;;;2.10;;
12880;SDS011;6508;53.786;9.996;2023-10-09T01:57:42;3.05;;;2.22;;
12880;SDS011;6508;53.786;9.996;2023-10-09T02:00:11;2.47;;;2.28;;
12880;SDS011;6508;53.786;9.996;2023-10-09T02:02:49;3.55;;;2.40;;
12880;SDS011;6508;53.786;9.996;2023-10-09T02:05:18;3.42;;;2.67;;
12880;SDS011;6508;53.786;9.996;2023-10-09T02:07:52;3.95;;;2.88;;
12880;SDS011;6508;53.786;9.996;2023-10-09T02:10:22;2.88;;;2.67;;
12880;SDS011;6508;53.786;9.996;2023-10-09T02:13:00;3.65;;;2.38;;
12880;SDS011;6508;53.786;9.996;2023-10-09T02:15:36;3.38;;;3.08;;
12880;SDS011;6508;53.786;9.996;2023-10-09T02:18:19;2.50;;;2.08;;
12880;SDS011;6508;53.786;9.996;2023-10-09T02:21:04;2.47;;;2.28;;
12880;SDS011;6508;53.786;9.996;2023-10-09T02:23:40;2.78;;;2.58;;
12880;SDS011;6508;53.786;9.996;2023-10-09T02:26:14;4.43;;;2.95;;
12880;SDS011;6508;53.786;9.996;2023-10-09T02:28:47;2.70;;;2.50;;
12880;SDS011;6508;53.786;9.996;2023-10-09T02:31:26;2.55;;;2.35;;
12880;SDS011;6508;53.786;9.996;2023-10-09T02:34:02;2.78;;;2.20;;
12880;SDS011;6508;53.786;9.996;2023-10-09T02:36:38;2.63;;;2.40;;
12880;SDS011;6508;53.786;9.996;2023-10-09T02:39:16;4.50;;;2.40;;
12880;SDS011;6508;53.786;9.996;2023-10-09T02:41:52;3.05;;;2.60;;
12880;SDS011;6508;53.786;9.996;2023-10-09T02:44:28;3.72;;;2.90;;
12880;SDS011;6508;53.786;9.996;2023-10-09T02:46:58;5.22;;;2.50;;
12880;SDS011;6508;53.786;9.996;2023-10-09T02:49:31;4.65;;;2.70;;
12880;SDS011;6508;53.786;9.996;2023-10-09T02:52:01;5.50;;;2.65;;
12880;SDS011;6508;53.786;9.996;2023-10-09T02:54:33;2.83;;;2.53;;
12880;SDS011;6508;53.786;9.996;2023-10-09T02:57:06;3.03;;;2.40;;
12880;SDS011;6508;53.786;9.996;2023-10-09T02:59:35;3.40;;;2.80;;
12880;SDS011;6508;53.786;9.996;2023-10-09T03:02:05;5.43;;;2.42;;
12880;SDS011;6508;53.786;9.996;2023-10-09T03:04:33;3.35;;;2.20;;
12880;SDS011;6508;53.786;9.996;2023-10-09T03:07:01;3.67;;;2.35;;
12880;SDS011;6508;53.786;9.996;2023-10-09T03:09:31;2.42;;;2.30;;
12880;SDS011;6508;53.786;9.996;2023-10-09T03:12:02;3.53;;;2.67;;
12880;SDS011;6508;53.786;9.996;2023-10-09T03:14:32;2.53;;;2.33;;
12880;SDS011;6508;53.786;9.996;2023-10-09T03:17:02;2.72;;;2.30;;
12880;SDS011;6508;53.786;9.996;2023-10-09T03:19:31;3.13;;;2.35;;
12880;SDS011;6508;53.786;9.996;2023-10-09T03:22:05;2.50;;;1.90;;
12880;SDS011;6508;53.786;9.996;2023-10-09T03:24:37;3.08;;;2.50;;
12880;SDS011;6508;53.786;9.996;2023-10-09T03:27:05;3.17;;;2.05;;
12880;SDS011;6508;53.786;9.996;2023-10-09T03:29:35;2.28;;;2.00;;
12880;SDS011;6508;53.786;9.996;2023-10-09T03:32:03;2.45;;;2.25;;
12880;SDS011;6508;53.786;9.996;2023-10-09T03:34:32;3.53;;;2.10;;
12880;SDS011;6508;53.786;9.996;2023-10-09T03:37:00;5.80;;;2.30;;
12880;SDS011;6508;53.786;9.996;2023-10-09T03:39:37;2.25;;;2.05;;
12880;SDS011;6508;53.786;9.996;2023-10-09T03:42:07;3.90;;;2.47;;
12880;SDS011;6508;53.786;9.996;2023-10-09T03:44:46;2.40;;;1.95;;
12880;SDS011;6508;53.786;9.996;2023-10-09T03:47:19;3.20;;;2.22;;
12880;SDS011;6508;53.786;9.996;2023-10-09T03:49:49;3.50;;;2.60;;
12880;SDS011;6508;53.786;9.996;2023-10-09T03:52:18;2.40;;;2.20;;
12880;SDS011;6508;53.786;9.996;2023-10-09T03:54:46;3.15;;;2.08;;
12880;SDS011;6508;53.786;9.996;2023-10-09T03:57:13;2.58;;;2.17;;
12880;SDS011;6508;53.786;9.996;2023-10-09T03:59:45;3.88;;;2.17;;
12880;SDS011;6508;53.786;9.996;2023-10-09T04:02:14;4.60;;;2.20;;
12880;SDS011;6508;53.786;9.996;2023-10-09T04:04:42;3.92;;;2.00;;
12880;SDS011;6508;53.786;9.996;2023-10-09T04:07:14;2.28;;;1.85;;
12880;SDS011;6508;53.786;9.996;2023-10-09T04:09:43;2.20;;;1.75;;
12880;SDS011;6508;53.786;9.996;2023-10-09T04:12:15;2.00;;;1.83;;
12880;SDS011;6508;53.786;9.996;2023-10-09T04:14:52;2.63;;;1.88;;
12880;SDS011;6508;53.786;9.996;2023-10-09T04:17:25;2.85;;;2.20;;
12880;SDS011;6508;53.786;9.996;2023-10-09T04:20:11;2.30;;;2.10;;
12880;SDS011;6508;53.786;9.996;2023-10-09T04:23:13;2.80;;;2.13;;
12880;SDS011;6508;53.786;9.996;2023-10-09T04:25:42;3.55;;;2.03;;
12880;SDS011;6508;53.786;9.996;2023-10-09T04:28:12;2.88;;;2.20;;
12880;SDS011;6508;53.786;9.996;2023-10-09T04:30:47;3.15;;;1.80;;
12880;SDS011;6508;53.786;9.996;2023-10-09T04:33:22;2.28;;;1.80;;
12880;SDS011;6508;53.786;9.996;2023-10-09T04:36:09;3.30;;;1.58;;
12880;SDS011;6508;53.786;9.996;2023-10-09T04:38:51;5.00;;;2.17;;
12880;SDS011;6508;53.786;9.996;2023-10-09T04:41:43;2.03;;;1.70;;
12880;SDS011;6508;53.786;9.996;2023-10-09T04:44:19;3.45;;;1.95;;
12880;SDS011;6508;53.786;9.996;2023-10-09T04:46:50;2.38;;;1.88;;
12880;SDS011;6508;53.786;9.996;2023-10-09T04:49:33;1.75;;;1.65;;
12880;SDS011;6508;53.786;9.996;2023-10-09T04:52:16;1.90;;;1.67;;
12880;SDS011;6508;53.786;9.996;2023-10-09T04:55:07;4.00;;;2.00;;
12880;SDS011;6508;53.786;9.996;2023-10-09T04:57:47;1.67;;;1.58;;
12880;SDS011;6508;53.786;9.996;2023-10-09T05:00:28;2.10;;;1.70;;
12880;SDS011;6508;53.786;9.996;2023-10-09T05:03:29;2.13;;;1.95;;
12880;SDS011;6508;53.786;9.996;2023-10-09T05:06:11;1.60;;;1.50;;
12880;SDS011;6508;53.786;9.996;2023-10-09T05:08:57;3.13;;;2.00;;
12880;SDS011;6508;53.786;9.996;2023-10-09T05:11:35;1.85;;;1.60;;
12880;SDS011;6508;53.786;9.996;2023-10-09T05:14:17;2.17;;;1.73;;
12880;SDS011;6508;53.786;9.996;2023-10-09T05:16:53;1.80;;;1.70;;
12880;SDS011;6508;53.786;9.996;2023-10-09T05:19:27;4.72;;;1.90;;
12880;SDS011;6508;53.786;9.996;2023-10-09T05:22:11;1.90;;;1.67;;
12880;SDS011;6508;53.786;9.996;2023-10-09T05:24:57;1.92;;;1.83;;
12880;SDS011;6508;53.786;9.996;2023-10-09T05:27:24;2.35;;;1.67;;
12880;SDS011;6508;53.786;9.996;2023-10-09T05:30:06;2.58;;;1.90;;
12880;SDS011;6508;53.786;9.996;2023-10-09T05:32:52;1.92;;;1.70;;
12880;SDS011;6508;53.786;9.996;2023-10-09T05:35:22;2.05;;;1.80;;
12880;SDS011;6508;53.786;9.996;2023-10-09T05:38:08;2.30;;;1.83;;
12880;SDS011;6508;53.786;9.996;2023-10-09T05:40:50;2.80;;;1.38;;
12880;SDS011;6508;53.786;9.996;2023-10-09T05:43:20;4.20;;;2.03;;
12880;SDS011;6508;53.786;9.996;2023-10-09T05:46:02;1.45;;;1.35;;
12880;SDS011;6508;53.786;9.996;2023-10-09T05:48:36;2.20;;;1.80;;
12880;SDS011;6508;53.786;9.996;2023-10-09T05:51:21;2.53;;;2.03;;
12880;SDS011;6508;53.786;9.996;2023-10-09T05:54:08;3.22;;;2.10;;
12880;SDS011;6508;53.786;9.996;2023-10-09T05:56:53;2.10;;;1.90;;
12880;SDS011;6508;53.786;9.996;2023-10-09T05:59:39;3.33;;;2.05;;
12880;SDS011;6508;53.786;9.996;2023-10-09T06:02:24;2.30;;;1.73;;
12880;SDS011;6508;53.786;9.996;2023-10-09T06:05:26;2.88;;;1.67;;
12880;SDS011;6508;53.786;9.996;2023-10-09T06:08:08;2.65;;;2.03;;
12880;SDS011;6508;53.786;9.996;2023-10-09T06:10:40;2.95;;;1.70;;
12880;SDS011;6508;53.786;9.996;2023-10-09T06:13:08;1.98;;;1.88;;
12880;SDS011;6508;53.786;9.996;2023-10-09T06:16:04;2.78;;;1.92;;
12880;SDS011;6508;53.786;9.996;2023-10-09T06:18:47;2.33;;;1.90;;
12880;SDS011;6508;53.786;9.996;2023-10-09T06:21:35;2.97;;;1.70;;
12880;SDS011;6508;53.786;9.996;2023-10-09T06:24:23;3.25;;;1.77;;
12880;SDS011;6508;53.786;9.996;2023-10-09T06:26:53;2.47;;;1.80;;
12880;SDS011;6508;53.786;9.996;2023-10-09T06:29:40;3.35;;;1.90;;
12880;SDS011;6508;53.786;9.996;2023-10-09T06:32:40;4.00;;;2.40;;
12880;SDS011;6508;53.786;9.996;2023-10-09T06:35:17;1.90;;;1.80;;
12880;SDS011;6508;53.786;9.996;2023-10-09T06:37:49;2.30;;;2.10;;
12880;SDS011;6508;53.786;9.996;2023-10-09T06:40:48;2.20;;;1.88;;
12880;SDS011;6508;53.786;9.996;2023-10-09T06:43:35;2.90;;;1.70;;
12880;SDS011;6508;53.786;9.996;2023-10-09T06:46:14;3.13;;;2.17;;
12880;SDS011;6508;53.786;9.996;2023-10-09T06:48:56;2.40;;;2.20;;
12880;SDS011;6508;53.786;9.996;2023-10-09T06:51:24;2.33;;;2.17;;
12880;SDS011;6508;53.786;9.996;2023-10-09T06:54:09;2.63;;;2.42;;
12880;SDS011;6508;53.786;9.996;2023-10-09T06:56:42;1.90;;;1.80;;
12880;SDS011;6508;53.786;9.996;2023-10-09T06:59:29;4.45;;;2.25;;
12880;SDS011;6508;53.786;9.996;2023-10-09T07:02:29;4.18;;;2.58;;
12880;SDS011;6508;53.786;9.996;2023-10-09T07:04:59;2.60;;;2.40;;
12880;SDS011;6508;53.786;9.996;2023-10-09T07:07:39;3.13;;;2.20;;
12880;SDS011;6508;53.786;9.996;2023-10-09T07:10:16;5.15;;;2.42;;
12880;SDS011;6508;53.786;9.996;2023-10-09T07:12:59;2.55;;;2.35;;
12880;SDS011;6508;53.786;9.996;2023-10-09T07:15:27;3.80;;;2.25;;
12880;SDS011;6508;53.786;9.996;2023-10-09T07:18:13;3.40;;;2.35;;
12880;SDS011;6508;53.786;9.996;2023-10-09T07:20:49;2.92;;;2.55;;
12880;SDS011;6508;53.786;9.996;2023-10-09T07:23:37;2.53;;;2.33;;
12880;SDS011;6508;53.786;9.996;2023-10-09T07:26:15;5.45;;;2.60;;
12880;SDS011;6508;53.786;9.996;2023-10-09T07:28:50;4.43;;;2.67;;
12880;SDS011;6508;53.786;9.996;2023-10-09T07:31:36;4.10;;;2.70;;
12880;SDS011;6508;53.786;9.996;2023-10-09T07:34:11;2.92;;;2.55;;
12880;SDS011;6508;53.786;9.996;2023-10-09T07:36:56;3.75;;;2.85;;
12880;SDS011;6508;53.786;9.996;2023-10-09T07:39:30;2.67;;;2.47;;
12880;SDS011;6508;53.786;9.996;2023-10-09T07:42:04;4.68;;;3.17;;
12880;SDS011;6508;53.786;9.996;2023-10-09T07:44:46;2.95;;;2.75;;
12880;SDS011;6508;53.786;9.996;2023-10-09T07:47:21;3.80;;;3.42;;
12880;SDS011;6508;53.786;9.996;2023-10-09T07:50:12;4.57;;;2.92;;
12880;SDS011;6508;53.786;9.996;2023-10-09T07:52:48;2.63;;;2.42;;
12880;SDS011;6508;53.786;9.996;2023-10-09T07:55:16;4.05;;;2.80;;
12880;SDS011;6508;53.786;9.996;2023-10-09T07:57:56;3.33;;;3.03;;
12880;SDS011;6508;53.786;9.996;2023-10-09T08:00:23;3.10;;;2.80;;
12880;SDS011;6508;53.786;9.996;2023-10-09T08:03:04;3.45;;;2.92;;
12880;SDS011;6508;53.786;9.996;2023-10-09T08:05:50;3.90;;;3.15;;
12880;SDS011;6508;53.786;9.996;2023-10-09T08:08:20;3.42;;;3.13;;
12880;SDS011;6508;53.786;9.996;2023-10-09T08:11:07;3.03;;;2.80;;
12880;SDS011;6508;53.786;9.996;2023-10-09T08:13:53;3.25;;;2.95;;
12880;SDS011;6508;53.786;9.996;2023-10-09T08:16:27;3.30;;;3.00;;
12880;SDS011;6508;53.786;9.996;2023-10-09T08:19:04;3.42;;;3.00;;
12880;SDS011;6508;53.786;9.996;2023-10-09T08:21:55;2.90;;;2.70;;
12880;SDS011;6508;53.786;9.996;2023-10-09T08:25:04;2.90;;;2.70;;
12880;SDS011;6508;53.786;9.996;2023-10-09T08:27:32;3.30;;;3.00;;
12880;SDS011;6508;53.786;9.996;2023-10-09T08:30:14;3.50;;;3.17;;
12880;SDS011;6508;53.786;9.996;2023-10-09T08:32:55;3.72;;;3.35;;
12880;SDS011;6508;53.786;9.996;2023-10-09T08:35:34;3.72;;;3.42;;
12880;SDS011;6508;53.786;9.996;2023-10-09T08:38:14;4.18;;;3.28;;
12880;SDS011;6508;53.786;9.996;2023-10-09T08:40:50;4.15;;;3.75;;
12880;SDS011;6508;53.786;9.996;2023-10-09T08:43:21;4.35;;;3.80;;
12880;SDS011;6508;53.786;9.996;2023-10-09T08:45:49;3.65;;;3.30;;
12880;SDS011;6508;53.786;9.996;2023-10-09T08:48:18;3.67;;;3.33;;
12880;SDS011;6508;53.786;9.996;2023-10-09T08:50:49;3.80;;;3.50;;
12880;SDS011;6508;53.786;9.996;2023-10-09T08:53:17;5.20;;;3.65;;
12880;SDS011;6508;53.786;9.996;2023-10-09T08:55:44;4.20;;;3.90;;
12880;SDS011;6508;53.786;9.996;2023-10-09T08:58:14;3.83;;;3.53;;
12880;SDS011;6508;53.786;9.996;2023-10-09T09:00:44;3.92;;;3.60;;
12880;SDS011;6508;53.786;9.996;2023-10-09T09:03:14;3.70;;;3.33;;
12880;SDS011;6508;53.786;9.996;2023-10-09T09:05:44;3.92;;;3.63;;
12880;SDS011;6508;53.786;9.996;2023-10-09T09:08:23;3.90;;;3.60;;
12880;SDS011;6508;53.786;9.996;2023-10-09T09:10:56;4.22;;;3.55;;
12880;SDS011;6508;53.786;9.996;2023-10-09T09:13:27;4.15;;;3.75;;
12880;SDS011;6508;53.786;9.996;2023-10-09T09:15:58;6.95;;;3.42;;
12880;SDS011;6508;53.786;9.996;2023-10-09T09:18:26;3.35;;;3.05;;
12880;SDS011;6508;53.786;9.996;2023-10-09T09:20:58;4.00;;;3.70;;
12880;SDS011;6508;53.786;9.996;2023-10-09T09:23:27;4.78;;;3.13;;
12880;SDS011;6508;53.786;9.996;2023-10-09T09:25:54;4.28;;;3.97;;
12880;SDS011;6508;53.786;9.996;2023-10-09T09:28:28;5.05;;;4.57;;
12880;SDS011;6508;53.786;9.996;2023-10-09T09:31:08;3.45;;;3.15;;
12880;SDS011;6508;53.786;9.996;2023-10-09T09:33:40;3.67;;;3.38;;
12880;SDS011;6508;53.786;9.996;2023-10-09T09:36:09;3.45;;;3.15;;
12880;SDS011;6508;53.786;9.996;2023-10-09T09:38:39;3.70;;;3.40;;
12880;SDS011;6508;53.786;9.996;2023-10-09T09:41:09;3.38;;;3.08;;
12880;SDS011;6508;53.786;9.996;2023-10-09T09:43:36;3.42;;;2.97;;
12880;SDS011;6508;53.786;9.996;2023-10-09T09:46:07;3.55;;;3.25;;
12880;SDS011;6508;53.786;9.996;2023-10-09T09:48:38;3.58;;;3.20;;
12880;SDS011;6508;53.786;9.996;2023-10-09T09:51:13;3.30;;;3.08;;
12880;SDS011;6508;53.786;9.996;2023-10-09T09:53:45;3.83;;;3.47;;
12880;SDS011;6508;53.786;9.996;2023-10-09T09:56:18;4.30;;;3.25;;
12880;SDS011;6508;53.786;9.996;2023-10-09T09:58:49;2.78;;;2.58;;
12880;SDS011;6508;53.786;9.996;2023-10-09T10:01:20;2.90;;;2.70;;
12880;SDS011;6508;53.786;9.996;2023-10-09T10:03:53;3.08;;;2.67;;
12880;SDS011;6508;53.786;9.996;2023-10-09T10:06:24;2.90;;;2.70;;
12880;SDS011;6508;53.786;9.996;2023-10-09T10:08:54;3.13;;;2.83;;
12880;SDS011;6508;53.786;9.996;2023-10-09T10:11:41;2.75;;;2.55;;
12880;SDS011;6508;53.786;9.996;2023-10-09T10:14:10;2.88;;;2.67;;
12880;SDS011;6508;53.786;9.996;2023-10-09T10:16:59;2.88;;;2.70;;
12880;SDS011;6508;53.786;9.996;2023-10-09T10:19:42;2.65;;;2.20;;
12880;SDS011;6508;53.786;9.996;2023-10-09T10:22:27;2.30;;;2.20;;
12880;SDS011;6508;53.786;9.996;2023-10-09T10:24:56;2.03;;;1.88;;
12880;SDS011;6508;53.786;9.996;2023-10-09T10:27:29;2.40;;;2.20;;
12880;SDS011;6508;53.786;9.996;2023-10-09T10:32:53;1.92;;;1.80;;
12880;SDS011;6508;53.786;9.996;2023-10-09T10:35:23;2.30;;;2.20;;
12880;SDS011;6508;53.786;9.996;2023-10-09T10:40:49;2.45;;;2.35;;
12880;SDS011;6508;53.786;9.996;2023-10-09T10:43:23;2.40;;;2.20;;
12880;SDS011;6508;53.786;9.996;2023-10-09T10:46:00;2.65;;;2.45;;
12880;SDS011;6508;53.786;9.996;2023-10-09T10:48:32;2.85;;;2.38;;
12880;SDS011;6508;53.786;9.996;2023-10-09T10:51:04;2.28;;;2.15;;
12880;SDS011;6508;53.786;9.996;2023-10-09T10:53:32;2.55;;;2.28;;
12880;SDS011;6508;53.786;9.996;2023-10-09T10:56:15;2.22;;;2.13;;
12880;SDS011;6508;53.786;9.996;2023-10-09T10:58:51;2.30;;;2.20;;
12880;SDS011;6508;53.786;9.996;2023-10-09T11:01:38;1.92;;;1.83;;
12880;SDS011;6508;53.786;9.996;2023-10-09T11:04:20;2.13;;;2.03;;
12880;SDS011;6508;53.786;9.996;2023-10-09T11:07:05;2.20;;;2.10;;
12880;SDS011;6508;53.786;9.996;2023-10-09T11:09:45;2.80;;;2.33;;
12880;SDS011;6508;53.786;9.996;2023-10-09T11:12:28;2.33;;;2.22;;
12880;SDS011;6508;53.786;9.996;2023-10-09T11:15:05;2.40;;;2.20;;
12880;SDS011;6508;53.786;9.996;2023-10-09T11:17:35;2.00;;;1.90;;
12880;SDS011;6508;53.786;9.996;2023-10-09T11:20:05;1.90;;;1.80;;
12880;SDS011;6508;53.786;9.996;2023-10-09T11:22:58;2.65;;;2.45;;
12880;SDS011;6508;53.786;9.996;2023-10-09T11:25:45;2.50;;;2.30;;
12880;SDS011;6508;53.786;9.996;2023-10-09T11:28:21;2.60;;;2.17;;
12880;SDS011;6508;53.786;9.996;2023-10-09T11:31:09;1.70;;;1.60;;
12880;SDS011;6508;53.786;9.996;2023-10-09T11:33:44;2.00;;;1.90;;
12880;SDS011;6508;53.786;9.996;2023-10-09T11:36:14;2.10;;;2.00;;
12880;SDS011;6508;53.786;9.996;2023-10-09T11:38:41;2.00;;;1.90;;
12880;SDS011;6508;53.786;9.996;2023-10-09T11:41:12;1.80;;;1.70;;
12880;SDS011;6508;53.786;9.996;2023-10-09T11:43:50;1.30;;;1.30;;
12880;SDS011;6508;53.786;9.996;2023-10-09T11:46:24;1.10;;;1.10;;
12880;SDS011;6508;53.786;9.996;2023-10-09T11:49:05;1.25;;;1.23;;
12880;SDS011;6508;53.786;9.996;2023-10-09T11:51:50;1.30;;;1.30;;
12880;SDS011;6508;53.786;9.996;2023-10-09T11:54:52;1.23;;;1.17;;
12880;SDS011;6508;53.786;9.996;2023-10-09T11:57:25;1.38;;;1.27;;
12880;SDS011;6508;53.786;9.996;2023-10-09T11:59:59;1.25;;;1.25;;
12880;SDS011;6508;53.786;9.996;2023-10-09T12:02:29;1.15;;;1.15;;
12880;SDS011;6508;53.786;9.996;2023-10-09T12:04:58;1.10;;;1.10;;
12880;SDS011;6508;53.786;9.996;2023-10-09T12:07:26;1.25;;;1.25;;
12880;SDS011;6508;53.786;9.996;2023-10-09T12:09:54;1.10;;;1.10;;
12880;SDS011;6508;53.786;9.996;2023-10-09T12:12:23;1.10;;;1.10;;
12880;SDS011;6508;53.786;9.996;2023-10-09T12:14:53;1.27;;;1.27;;
12880;SDS011;6508;53.786;9.996;2023-10-09T12:17:22;1.10;;;1.10;;
12880;SDS011;6508;53.786;9.996;2023-10-09T12:19:53;1.27;;;1.17;;
12880;SDS011;6508;53.786;9.996;2023-10-09T12:22:22;1.45;;;1.35;;
12880;SDS011;6508;53.786;9.996;2023-10-09T12:24:54;1.30;;;1.30;;
12880;SDS011;6508;53.786;9.996;2023-10-09T12:27:23;1.42;;;1.33;;
12880;SDS011;6508;53.786;9.996;2023-10-09T12:29:51;1.10;;;1.10;;
12880;SDS011;6508;53.786;9.996;2023-10-09T12:32:19;1.30;;;1.20;;
12880;SDS011;6508;53.786;9.996;2023-10-09T12:34:49;1.25;;;1.25;;
12880;SDS011;6508;53.786;9.996;2023-10-09T12:37:18;1.00;;;1.00;;
12880;SDS011;6508;53.786;9.996;2023-10-09T12:39:47;1.17;;;1.13;;
12880;SDS011;6508;53.786;9.996;2023-10-09T12:42:16;0.90;;;0.90;;
12880;SDS011;6508;53.786;9.996;2023-10-09T12:44:44;1.15;;;1.15;;
12880;SDS011;6508;53.786;9.996;2023-10-09T12:47:11;1.17;;;1.08;;
12880;SDS011;6508;53.786;9.996;2023-10-09T12:49:40;1.00;;;1.00;;
12880;SDS011;6508;53.786;9.996;2023-10-09T12:52:09;1.10;;;1.10;;
12880;SDS011;6508;53.786;9.996;2023-10-09T12:54:42;2.00;;;1.90;;
12880;SDS011;6508;53.786;9.996;2023-10-09T12:57:12;1.52;;;1.42;;
12880;SDS011;6508;53.786;9.996;2023-10-09T12:59:41;1.20;;;1.20;;
12880;SDS011;6508;53.786;9.996;2023-10-09T13:02:12;2.38;;;1.20;;
12880;SDS011;6508;53.786;9.996;2023-10-09T13:04:40;1.60;;;1.50;;
12880;SDS011;6508;53.786;9.996;2023-10-09T13:07:11;1.38;;;1.38;;
12880;SDS011;6508;53.786;9.996;2023-10-09T13:09:39;1.88;;;1.20;;
12880;SDS011;6508;53.786;9.996;2023-10-09T13:12:10;1.67;;;1.58;;
12880;SDS011;6508;53.786;9.996;2023-10-09T13:14:44;1.55;;;1.45;;
12880;SDS011;6508;53.786;9.996;2023-10-09T13:17:16;1.10;;;1.10;;
12880;SDS011;6508;53.786;9.996;2023-10-09T13:19:47;1.20;;;1.20;;
12880;SDS011;6508;53.786;9.996;2023-10-09T13:22:16;1.23;;;1.20;;
12880;SDS011;6508;53.786;9.996;2023-10-09T13:24:44;1.10;;;1.10;;
12880;SDS011;6508;53.786;9.996;2023-10-09T13:27:14;1.23;;;1.23;;
12880;SDS011;6508;53.786;9.996;2023-10-09T13:29:47;1.10;;;1.10;;
12880;SDS011;6508;53.786;9.996;2023-10-09T13:32:16;1.10;;;1.10;;
12880;SDS011;6508;53.786;9.996;2023-10-09T13:34:47;1.02;;;1.02;;
12880;SDS011;6508;53.786;9.996;2023-10-09T13:37:17;1.25;;;1.25;;
12880;SDS011;6508;53.786;9.996;2023-10-09T13:39:48;1.17;;;1.17;;
12880;SDS011;6508;53.786;9.996;2023-10-09T13:42:22;1.48;;;1.40;;
12880;SDS011;6508;53.786;9.996;2023-10-09T13:44:52;1.25;;;1.25;;
12880;SDS011;6508;53.786;9.996;2023-10-09T13:47:20;1.42;;;1.42;;
12880;SDS011;6508;53.786;9.996;2023-10-09T13:49:52;1.48;;;1.30;;
12880;SDS011;6508;53.786;9.996;2023-10-09T13:52:21;1.38;;;1.35;;
12880;SDS011;6508;53.786;9.996;2023-10-09T13:54:49;1.58;;;1.52;;
12880;SDS011;6508;53.786;9.996;2023-10-09T13:57:17;1.70;;;1.60;;
12880;SDS011;6508;53.786;9.996;2023-10-09T13:59:48;1.33;;;1.33;;
12880;SDS011;6508;53.786;9.996;2023-10-09T14:02:16;1.60;;;1.50;;
12880;SDS011;6508;53.786;9.996;2023-10-09T14:04:47;1.88;;;1.75;;
12880;SDS011;6508;53.786;9.996;2023-10-09T14:07:15;1.50;;;1.50;;
12880;SDS011;6508;53.786;9.996;2023-10-09T14:09:45;1.50;;;1.42;;
12880;SDS011;6508;53.786;9.996;2023-10-09T14:12:22;1.77;;;1.67;;
12880;SDS011;6508;53.786;9.996;2023-10-09T14:14:51;1.90;;;1.80;;
12880;SDS011;6508;53.786;9.996;2023-10-09T14:17:21;1.98;;;1.88;;
12880;SDS011;6508;53.786;9.996;2023-10-09T14:19:52;2.03;;;1.92;;
12880;SDS011;6508;53.786;9.996;2023-10-09T14:22:21;1.92;;;1.83;;
12880;SDS011;6508;53.786;9.996;2023-10-09T14:24:52;2.05;;;1.95;;
12880;SDS011;6508;53.786;9.996;2023-10-09T14:27:23;2.35;;;2.15;;
12880;SDS011;6508;53.786;9.996;2023-10-09T14:29:53;2.13;;;2.03;;
12880;SDS011;6508;53.786;9.996;2023-10-09T14:32:23;2.78;;;2.58;;
12880;SDS011;6508;53.786;9.996;2023-10-09T14:34:55;2.67;;;2.58;;
12880;SDS011;6508;53.786;9.996;2023-10-09T14:37:30;2.60;;;2.50;;
12880;SDS011;6508;53.786;9.996;2023-10-09T14:40:00;2.55;;;2.35;;
12880;SDS011;6508;53.786;9.996;2023-10-09T14:42:29;2.70;;;2.50;;
12880;SDS011;6508;53.786;9.996;2023-10-09T14:44:57;2.90;;;2.70;;
12880;SDS011;6508;53.786;9.996;2023-10-09T14:47:24;3.10;;;2.90;;
12880;SDS011;6508;53.786;9.996;2023-10-09T14:49:52;3.13;;;2.92;;
12880;SDS011;6508;53.786;9.996;2023-10-09T14:52:23;2.95;;;2.75;;
12880;SDS011;6508;53.786;9.996;2023-10-09T14:54:50;3.25;;;3.05;;
12880;SDS011;6508;53.786;9.996;2023-10-09T14:57:20;3.25;;;3.05;;
12880;SDS011;6508;53.786;9.996;2023-10-09T14:59:48;3.42;;;3.22;;
12880;SDS011;6508;53.786;9.996;2023-10-09T15:02:16;3.17;;;2.97;;
12880;SDS011;6508;53.786;9.996;2023-10-09T15:04:44;3.38;;;3.17;;
12880;SDS011;6508;53.786;9.996;2023-10-09T15:07:12;3.33;;;3.13;;
12880;SDS011;6508;53.786;9.996;2023-10-09T15:10:01;4.13;;;3.83;;
12880;SDS011;6508;53.786;9.996;2023-10-09T15:12:33;3.38;;;3.17;;
12880;SDS011;6508;53.786;9.996;2023-10-09T15:15:06;3.83;;;3.53;;
12880;SDS011;6508;53.786;9.996;2023-10-09T15:17:38;3.63;;;3.33;;
12880;SDS011;6508;53.786;9.996;2023-10-09T15:20:07;3.72;;;3.42;;
12880;SDS011;6508;53.786;9.996;2023-10-09T15:22:40;5.63;;;3.17;;
12880;SDS011;6508;53.786;9.996;2023-10-09T15:25:08;3.47;;;3.22;;
12880;SDS011;6508;53.786;9.996;2023-10-09T15:27:43;3.83;;;3.53;;
12880;SDS011;6508;53.786;9.996;2023-10-09T15:30:11;3.45;;;3.25;;
12880;SDS011;6508;53.786;9.996;2023-10-09T15:32:41;3.78;;;3.47;;
12880;SDS011;6508;53.786;9.996;2023-10-09T15:35:09;4.35;;;4.05;;
12880;SDS011;6508;53.786;9.996;2023-10-09T15:37:40;3.72;;;3.53;;
12880;SDS011;6508;53.786;9.996;2023-10-09T15:40:08;4.07;;;3.78;;
12880;SDS011;6508;53.786;9.996;2023-10-09T15:42:40;3.67;;;3.38;;
12880;SDS011;6508;53.786;9.996;2023-10-09T15:45:10;4.10;;;3.80;;
12880;SDS011;6508;53.786;9.996;2023-10-09T15:47:39;4.45;;;4.15;;
12880;SDS011;6508;53.786;9.996;2023-10-09T15:50:08;4.07;;;3.78;;